AUA199Y EDDM-LOWW
Flight info
| Callsign | AUA199Y |
|---|---|
| Flight time | N/A |
| Altitude | 25000 |
| Route | KIRDI3S/26L KIRDI DCT BUWOQ DCT MASUR MASUR3W |
| Aircraft | A320/M-SDE3FGHIRWY/LB1 |
Departure
| Time | 2026-05-06 18:01 |
|---|---|
| Airport | Munich Airport (EDDM) |
Arrival
| Time | N/A |
|---|---|
| Airport | Vienna International Airport (LOWW) |
| Time | Latitude | Longitude | Altitude | Speed | Heading |
|---|---|---|---|---|---|
| 2026-05-06 17:23 | 48.35549 | 11.79993 | 1472 ft | 0 kts | 263° |
| 2026-05-06 17:41 | 48.35549 | 11.79996 | 1461 ft | 1 kts | 263° |
| 2026-05-06 17:41 | 48.35551 | 11.80023 | 1467 ft | 3 kts | 263° |
| 2026-05-06 17:41 | 48.35554 | 11.80052 | 1463 ft | 2 kts | 263° |
| 2026-05-06 17:41 | 48.35556 | 11.80078 | 1460 ft | 3 kts | 248° |
| 2026-05-06 17:42 | 48.35566 | 11.80101 | 1465 ft | 3 kts | 207° |
| 2026-05-06 17:42 | 48.35584 | 11.80110 | 1462 ft | 3 kts | 178° |
| 2026-05-06 17:42 | 48.35597 | 11.80108 | 1467 ft | 1 kts | 173° |
| 2026-05-06 17:42 | 48.35600 | 11.80108 | 1466 ft | 0 kts | 173° |
| 2026-05-06 17:46 | 48.35586 | 11.80110 | 1462 ft | 6 kts | 173° |
| 2026-05-06 17:46 | 48.35551 | 11.80117 | 1466 ft | 4 kts | 173° |
| 2026-05-06 17:47 | 48.35498 | 11.80126 | 1469 ft | 12 kts | 173° |
| 2026-05-06 17:47 | 48.35401 | 11.80148 | 1470 ft | 15 kts | 166° |
| 2026-05-06 17:47 | 48.35301 | 11.80170 | 1475 ft | 15 kts | 174° |
| 2026-05-06 17:47 | 48.35200 | 11.80188 | 1475 ft | 15 kts | 173° |
| 2026-05-06 17:48 | 48.35135 | 11.80138 | 1473 ft | 11 kts | 257° |
| 2026-05-06 17:48 | 48.35125 | 11.80015 | 1471 ft | 12 kts | 263° |
| 2026-05-06 17:48 | 48.35115 | 11.79885 | 1477 ft | 12 kts | 263° |
| 2026-05-06 17:48 | 48.35107 | 11.79779 | 1478 ft | 0 kts | 263° |
| 2026-05-06 17:49 | 48.35107 | 11.79773 | 1478 ft | 2 kts | 263° |
| 2026-05-06 17:49 | 48.35106 | 11.79770 | 1478 ft | 0 kts | 263° |
| 2026-05-06 17:51 | 48.35101 | 11.79715 | 1478 ft | 10 kts | 259° |
| 2026-05-06 17:51 | 48.35049 | 11.79662 | 1474 ft | 10 kts | 182° |
| 2026-05-06 17:51 | 48.34980 | 11.79672 | 1468 ft | 10 kts | 173° |
| 2026-05-06 17:51 | 48.34919 | 11.79683 | 1473 ft | 8 kts | 173° |
| 2026-05-06 17:52 | 48.34865 | 11.79693 | 1475 ft | 8 kts | 173° |
| 2026-05-06 17:52 | 48.34810 | 11.79746 | 1478 ft | 12 kts | 111° |
| 2026-05-06 17:52 | 48.34815 | 11.79863 | 1477 ft | 10 kts | 82° |
| 2026-05-06 17:52 | 48.34823 | 11.79964 | 1479 ft | 9 kts | 84° |
| 2026-05-06 17:53 | 48.34829 | 11.80050 | 1479 ft | 8 kts | 84° |
| 2026-05-06 17:53 | 48.34827 | 11.80123 | 1479 ft | 6 kts | 110° |
| 2026-05-06 17:53 | 48.34803 | 11.80177 | 1469 ft | 9 kts | 128° |
| 2026-05-06 17:53 | 48.34750 | 11.80239 | 1477 ft | 9 kts | 168° |
| 2026-05-06 17:54 | 48.34690 | 11.80250 | 1472 ft | 8 kts | 174° |
| 2026-05-06 17:54 | 48.34640 | 11.80259 | 1479 ft | 7 kts | 173° |
| 2026-05-06 17:54 | 48.34601 | 11.80265 | 1477 ft | 4 kts | 174° |
| 2026-05-06 17:54 | 48.34584 | 11.80268 | 1479 ft | 0 kts | 173° |
| 2026-05-06 17:57 | 48.34554 | 11.80273 | 1481 ft | 9 kts | 173° |
| 2026-05-06 17:57 | 48.34503 | 11.80270 | 1477 ft | 7 kts | 196° |
| 2026-05-06 17:58 | 48.34463 | 11.80212 | 1482 ft | 9 kts | 245° |
| 2026-05-06 17:58 | 48.34458 | 11.80169 | 1482 ft | 0 kts | 265° |
| 2026-05-06 18:00 | 48.34454 | 11.80101 | 1482 ft | 29 kts | 264° |
| 2026-05-06 18:00 | 48.34404 | 11.79456 | 1478 ft | 94 kts | 263° |
| 2026-05-06 18:00 | 48.34305 | 11.78199 | 1482 ft | 145 kts | 263° |
| 2026-05-06 18:01 | 48.34184 | 11.76606 | 1941 ft | 154 kts | 263° |
| 2026-05-06 18:01 | 48.34070 | 11.74993 | 2667 ft | 156 kts | 264° |
| 2026-05-06 18:01 | 48.33947 | 11.73286 | 2994 ft | 177 kts | 264° |
| 2026-05-06 18:01 | 48.33609 | 11.71404 | 3254 ft | 199 kts | 240° |
| 2026-05-06 18:02 | 48.32482 | 11.70139 | 3924 ft | 216 kts | 199° |
| 2026-05-06 18:02 | 48.30949 | 11.69960 | 4661 ft | 226 kts | 184° |
| 2026-05-06 18:02 | 48.29361 | 11.70125 | 5437 ft | 232 kts | 175° |
| 2026-05-06 18:02 | 48.27879 | 11.71217 | 6101 ft | 253 kts | 145° |
| 2026-05-06 18:03 | 48.26517 | 11.73063 | 6422 ft | 278 kts | 144° |
| 2026-05-06 18:03 | 48.25004 | 11.74937 | 7074 ft | 286 kts | 147° |
| 2026-05-06 18:03 | 48.23389 | 11.76677 | 7975 ft | 284 kts | 151° |
| 2026-05-06 18:03 | 48.21749 | 11.78288 | 8965 ft | 281 kts | 152° |
| 2026-05-06 18:04 | 48.20126 | 11.79928 | 9814 ft | 287 kts | 143° |
| 2026-05-06 18:04 | 48.18851 | 11.82317 | 10474 ft | 303 kts | 120° |
| 2026-05-06 18:04 | 48.18308 | 11.85402 | 11212 ft | 314 kts | 95° |
| 2026-05-06 18:04 | 48.18517 | 11.88692 | 11984 ft | 319 kts | 85° |
| 2026-05-06 18:05 | 48.18817 | 11.91988 | 12776 ft | 321 kts | 86° |
| 2026-05-06 18:05 | 48.19074 | 11.95324 | 13522 ft | 323 kts | 87° |
| 2026-05-06 18:05 | 48.19304 | 11.98691 | 14180 ft | 327 kts | 87° |
| 2026-05-06 18:05 | 48.19523 | 12.02046 | 14815 ft | 330 kts | 87° |
| 2026-05-06 18:06 | 48.19747 | 12.05481 | 15445 ft | 333 kts | 87° |
| 2026-05-06 18:06 | 48.19979 | 12.08955 | 16082 ft | 336 kts | 86° |
| 2026-05-06 18:06 | 48.20218 | 12.12455 | 16706 ft | 340 kts | 86° |
| 2026-05-06 18:06 | 48.20462 | 12.15999 | 17325 ft | 343 kts | 86° |
| 2026-05-06 18:07 | 48.20710 | 12.19575 | 17947 ft | 347 kts | 86° |
| 2026-05-06 18:07 | 48.20962 | 12.23191 | 18486 ft | 351 kts | 86° |
| 2026-05-06 18:07 | 48.21213 | 12.26840 | 19009 ft | 354 kts | 87° |
| 2026-05-06 18:07 | 48.21463 | 12.30526 | 19539 ft | 357 kts | 87° |
| 2026-05-06 18:08 | 48.21710 | 12.34197 | 20062 ft | 360 kts | 87° |
| 2026-05-06 18:08 | 48.21800 | 12.35532 | 20240 ft | 361 kts | 87° |
| 2026-05-06 18:08 | 48.22046 | 12.39284 | 20759 ft | 365 kts | 87° |
| 2026-05-06 18:08 | 48.22299 | 12.43089 | 21275 ft | 368 kts | 88° |
| 2026-05-06 18:09 | 48.22554 | 12.46925 | 21603 ft | 371 kts | 88° |
| 2026-05-06 18:09 | 48.22811 | 12.50792 | 21862 ft | 372 kts | 88° |
| 2026-05-06 18:09 | 48.23059 | 12.54659 | 22119 ft | 374 kts | 90° |
| 2026-05-06 18:09 | 48.23005 | 12.58543 | 22386 ft | 374 kts | 102° |
| 2026-05-06 18:10 | 48.22632 | 12.62445 | 22651 ft | 383 kts | 103° |
| 2026-05-06 18:10 | 48.22245 | 12.66417 | 22752 ft | 398 kts | 103° |
| 2026-05-06 18:10 | 48.21840 | 12.70610 | 22762 ft | 414 kts | 102° |
| 2026-05-06 18:10 | 48.21427 | 12.74935 | 23001 ft | 423 kts | 102° |
| 2026-05-06 18:11 | 48.21016 | 12.79320 | 23270 ft | 427 kts | 102° |
| 2026-05-06 18:11 | 48.20784 | 12.83802 | 23498 ft | 435 kts | 93° |
| 2026-05-06 18:11 | 48.21129 | 12.88343 | 23730 ft | 443 kts | 82° |
| 2026-05-06 18:11 | 48.21723 | 12.92885 | 23957 ft | 445 kts | 82° |
| 2026-05-06 18:12 | 48.22323 | 12.97450 | 24193 ft | 447 kts | 82° |
| 2026-05-06 18:12 | 48.22925 | 13.02040 | 24426 ft | 449 kts | 82° |
| 2026-05-06 18:12 | 48.23520 | 13.06585 | 24640 ft | 451 kts | 82° |
| 2026-05-06 18:12 | 48.24119 | 13.11193 | 24710 ft | 447 kts | 82° |
| 2026-05-06 18:13 | 48.24713 | 13.15739 | 24726 ft | 442 kts | 82° |
| 2026-05-06 18:13 | 48.25304 | 13.20256 | 24720 ft | 440 kts | 82° |
| 2026-05-06 18:13 | 48.25889 | 13.24755 | 24718 ft | 440 kts | 83° |
| 2026-05-06 18:13 | 48.26138 | 13.26675 | 24720 ft | 440 kts | 83° |
| 2026-05-06 18:14 | 48.26677 | 13.30887 | 24716 ft | 440 kts | 83° |
| 2026-05-06 18:14 | 48.27252 | 13.35388 | 24716 ft | 440 kts | 83° |
| 2026-05-06 18:14 | 48.27635 | 13.38383 | 24713 ft | 440 kts | 83° |
| 2026-05-06 18:14 | 48.28016 | 13.41366 | 24712 ft | 440 kts | 83° |